Terminal Aerodrome Forecast
Issued by NWS

Home | Current Version | Previous Version | Text Only | Print | Product List | Glossary Off
Versions: 1 2 3 4 5 6 7 8 9 10 11 12 13 14 15 16 17 18 19

000
FTUS41 KCLE 270536
TAFFDY
TAF
KFDY 270536Z 2706/2806 21010KT P6SM BKN080
     FM271400 23012G22KT P6SM SCT015
     FM271600 23015G25KT P6SM BKN040
     FM271800 25018G28KT P6SM BKN050
      TEMPO 2720/2723 3SM -TSRA OVC035CB
     FM280200 29008KT P6SM FEW120=

USA.gov is the U.S. government's official web portal to all federal, state and local government web resources and services.